Time;durP1;ratioP1;P1;durP2;ratioP2;P2;SDS_P1;SDS_P2;PMS_P1;PMS_P2;Temp;Humidity;BMP_temperature;BMP_pressure;BME280_temperature;BME280_humidity;BME280_pressure;Samples;Min_cycle;Max_cycle;Signal;HPM_P1;HPM_P2
2021/03/05 00:01:18;;;;;;;;;;;;;;;1.01;79.54;101068.44;1619096;86;20314;-80
2021/03/05 00:04:03;;;;;;;;;;;;;;;1.03;79.55;101065.11;1615307;87;20297;-79
2021/03/05 00:06:47;;;;;;;;;;;;;;;1.04;79.57;101065.98;1615651;87;20224;-79
2021/03/05 00:09:32;;;;;;;;;;;;;;;1.07;79.64;101064.77;1618969;87;20293;-79
2021/03/05 00:12:16;;;;;;;;;;;;;;;1.10;79.66;101059.36;1629898;87;20295;-79
2021/03/05 00:15:02;;;;;;;;;;;;;;;1.12;79.62;101060.67;1595873;87;20536;-79
2021/03/05 00:17:47;;;;;;;;;;;;;;;1.11;79.61;101064.91;1621108;87;20308;-80
2021/03/05 00:20:33;;;;;;;;;;;;;;;1.10;79.58;101066.12;1660526;86;20295;-79
2021/03/05 00:23:18;;;;;;;;;;;;;;;1.08;79.56;101073.72;1656311;84;20979;-79
2021/03/05 00:26:03;;;;;;;;;;;;;;;1.05;79.58;101069.81;1665620;85;20292;-79
2021/03/05 00:28:47;;;;;;;;;;;;;;;1.02;79.63;101076.53;1664844;84;20270;-79
2021/03/05 00:31:31;;;;;;;;;;;;;;;0.96;79.57;101071.70;1665397;84;20207;-79
2021/03/05 00:34:16;;;;;;;;;;;;;;;0.93;79.62;101075.43;1657996;84;20261;-79
2021/03/05 00:37:01;;;;;;;;;;;;;;;0.91;79.68;101078.75;1644617;85;20440;-79
2021/03/05 00:39:46;;;;;;;;;;;;;;;0.88;79.69;101071.88;1651183;84;20304;-79
2021/03/05 00:42:31;;;;;;;;;;;;;;;0.90;79.81;101078.30;1660444;84;20307;-79
2021/03/05 00:45:17;;;;;;;;;;;;;;;0.90;79.79;101082.97;1666199;84;20582;-79
2021/03/05 00:48:02;;;;;;;;;;;;;;;0.89;79.78;101085.06;1655445;84;20312;-79
2021/03/05 00:50:47;;;;;;;;;;;;;;;0.83;79.73;101084.87;1660294;84;20298;-80
2021/03/05 00:53:32;;;;;;;;;;;;;;;0.78;79.75;101089.37;1666678;84;20611;-80
2021/03/05 00:56:17;;;;;;;;;;;;;;;0.79;79.86;101087.28;1654671;84;21389;-79
2021/03/05 00:59:02;;;;;;;;;;;;;;;0.74;79.78;101082.45;1664955;85;20292;-80
2021/03/05 01:01:46;;;;;;;;;;;;;;;0.69;79.76;101085.27;1657526;84;20325;-80
2021/03/05 01:04:30;;;;;;;;;;;;;;;0.65;79.80;101091.52;1658132;84;20534;-79
2021/03/05 01:07:15;;;;;;;;;;;;;;;0.65;79.87;101088.12;1630106;84;20340;-79
2021/03/05 01:10:00;;;;;;;;;;;;;;;0.62;79.76;101089.30;1555456;88;20358;-79
2021/03/05 01:12:45;;;;;;;;;;;;;;;0.58;79.70;101090.87;1567167;90;20315;-79
2021/03/05 01:15:29;;;;;;;;;;;;;;;0.53;79.75;101094.09;1561826;91;20372;-79
2021/03/05 01:18:14;;;;;;;;;;;;;;;0.50;79.67;101097.42;1569348;89;20284;-79
2021/03/05 01:20:59;;;;;;;;;;;;;;;0.48;79.68;101093.11;1553662;91;20378;-79
2021/03/05 01:23:44;;;;;;;;;;;;;;;0.46;79.68;101096.01;1563757;90;20615;-79
2021/03/05 01:26:29;;;;;;;;;;;;;;;0.42;79.63;101100.12;1570022;89;20462;-79
2021/03/05 01:29:14;;;;;;;;;;;;;;;0.39;79.65;101101.70;1592463;88;20307;-79
2021/03/05 01:31:58;;;;;;;;;;;;;;;0.36;79.60;101106.28;1595535;88;20324;-79
2021/03/05 01:34:43;;;;;;;;;;;;;;;0.32;79.64;101107.00;1595126;88;20307;-79
2021/03/05 01:37:27;;;;;;;;;;;;;;;0.29;79.59;101099.27;1584733;88;20395;-79
2021/03/05 01:40:16;;;;;;;;;;;;;;;0.23;79.53;101105.02;1594265;89;20303;-79
2021/03/05 01:43:01;;;;;;;;;;;;;;;0.15;79.52;101107.70;1593672;89;20303;-79
2021/03/05 01:45:47;;;;;;;;;;;;;;;0.08;79.54;101107.44;1580242;89;20344;-79
2021/03/05 01:48:32;;;;;;;;;;;;;;;0.03;79.60;101107.28;1589126;88;20323;-80
2021/03/05 01:51:19;;;;;;;;;;;;;;;-0.03;79.58;101120.67;1590452;88;20331;-79
2021/03/05 01:54:05;;;;;;;;;;;;;;;-0.06;79.63;101118.44;1585735;89;20310;-79
2021/03/05 01:56:51;;;;;;;;;;;;;;;-0.08;79.73;101127.28;1579912;88;20310;-79
2021/03/05 01:59:36;;;;;;;;;;;;;;;-0.11;79.70;101134.80;1594956;89;20312;-79
2021/03/05 02:02:20;;;;;;;;;;;;;;;-0.17;79.69;101123.14;1576861;89;20294;-79
2021/03/05 02:05:06;;;;;;;;;;;;;;;-0.22;79.71;101128.46;1588269;88;20634;-79
2021/03/05 02:07:51;;;;;;;;;;;;;;;-0.29;79.63;101136.67;1594079;89;20567;-79
2021/03/05 02:10:35;;;;;;;;;;;;;;;-0.37;79.67;101140.61;1591364;88;20524;-78
2021/03/05 02:13:20;;;;;;;;;;;;;;;-0.45;79.71;101144.55;1593629;88;20316;-79
2021/03/05 02:16:08;;;;;;;;;;;;;;;-0.49;79.74;101143.56;1593678;89;20323;-79
2021/03/05 02:18:56;;;;;;;;;;;;;;;-0.54;79.73;101149.31;1579477;88;20583;-79
2021/03/05 02:22:06;;;;;;;;;;;;;;;-0.59;79.77;101147.01;1581533;89;20332;-80
2021/03/05 02:25:27;;;;;;;;;;;;;;;-0.65;79.77;101151.45;1586430;88;20335;-79
2021/03/05 02:28:43;;;;;;;;;;;;;;;-0.68;79.81;101153.88;1571576;89;20556;-79
2021/03/05 02:31:40;;;;;;;;;;;;;;;-0.70;79.91;101158.03;1567660;89;20764;-79
2021/03/05 02:34:30;;;;;;;;;;;;;;;-0.75;79.77;101167.14;1576908;90;20272;-79
2021/03/05 02:37:16;;;;;;;;;;;;;;;-0.81;79.80;101171.58;1575938;89;20205;-79
2021/03/05 02:40:04;;;;;;;;;;;;;;;-0.85;79.81;101167.59;1573948;89;20476;-79
2021/03/05 02:42:55;;;;;;;;;;;;;;;-0.89;79.81;101172.09;1566783;90;20305;-79
2021/03/05 02:45:40;;;;;;;;;;;;;;;-0.92;79.83;101173.23;1568233;89;20269;-79
2021/03/05 02:48:28;;;;;;;;;;;;;;;-0.92;79.91;101175.77;1576554;89;20305;-80
2021/03/05 02:51:13;;;;;;;;;;;;;;;-0.97;79.85;101174.33;1565557;90;21047;-80
2021/03/05 02:54:00;;;;;;;;;;;;;;;-1.01;79.85;101177.55;1562891;90;20316;-80
2021/03/05 02:56:46;;;;;;;;;;;;;;;-1.05;79.86;101179.53;1577284;89;20789;-80
2021/03/05 02:59:32;;;;;;;;;;;;;;;-1.09;79.85;101173.87;1574427;90;20317;-80
2021/03/05 03:05:30;;;;;;;;;;;;;;;-1.13;79.90;101187.23;1639055;84;20280;-80
2021/03/05 03:08:14;;;;;;;;;;;;;;;-1.16;79.86;101191.78;1628918;85;20332;-79
2021/03/05 03:11:01;;;;;;;;;;;;;;;-1.22;79.86;101197.02;1639320;85;21064;-79
2021/03/05 03:13:47;;;;;;;;;;;;;;;-1.26;79.83;101202.36;1642648;85;20313;-80
2021/03/05 03:16:33;;;;;;;;;;;;;;;-1.30;79.86;101206.84;1632589;85;20323;-80
2021/03/05 03:19:19;;;;;;;;;;;;;;;-1.35;79.91;101204.12;1640205;84;20729;-80
2021/03/05 03:22:04;;;;;;;;;;;;;;;-1.35;79.90;101214.27;1635123;85;20582;-79
2021/03/05 03:24:49;;;;;;;;;;;;;;;-1.37;79.94;101217.14;1630209;85;20574;-79
2021/03/05 03:27:34;;;;;;;;;;;;;;;-1.37;79.93;101219.67;1633020;85;20701;-80
2021/03/05 03:30:19;;;;;;;;;;;;;;;-1.40;79.88;101222.48;1641878;84;20409;-79
2021/03/05 03:33:04;;;;;;;;;;;;;;;-1.42;79.89;101221.16;1622218;85;20307;-79
2021/03/05 03:35:49;;;;;;;;;;;;;;;-1.45;79.90;101223.56;1629843;85;20341;-79
2021/03/05 03:38:34;;;;;;;;;;;;;;;-1.44;79.94;101224.42;1631719;85;20312;-79
2021/03/05 03:41:18;;;;;;;;;;;;;;;-1.45;79.93;101231.17;1632428;86;20293;-80
2021/03/05 03:44:08;;;;;;;;;;;;;;;-1.50;79.99;101224.17;1626498;85;20419;-79
2021/03/05 03:46:53;;;;;;;;;;;;;;;-1.48;79.89;101233.58;1641694;85;20573;-79
2021/03/05 03:49:41;;;;;;;;;;;;;;;-1.51;79.91;101237.25;1658767;84;20296;-79
2021/03/05 03:52:48;;;;;;;;;;;;;;;-1.52;79.99;101236.78;1627361;84;20300;-79
2021/03/05 03:55:33;;;;;;;;;;;;;;;-1.51;79.95;101243.59;1623990;86;20582;-79
2021/03/05 03:58:20;;;;;;;;;;;;;;;-1.53;79.94;101243.05;1622734;86;20325;-79
2021/03/05 04:01:10;;;;;;;;;;;;;;;-1.56;79.93;101246.33;1628145;86;20300;-79
2021/03/05 04:03:55;;;;;;;;;;;;;;;-1.59;79.93;101252.56;1597074;87;20357;-79
2021/03/05 04:06:41;;;;;;;;;;;;;;;-1.61;79.92;101257.11;1569801;88;322719;-79
2021/03/05 04:09:26;;;;;;;;;;;;;;;-1.62;80.01;101260.05;1556108;89;20304;-79
2021/03/05 04:12:11;;;;;;;;;;;;;;;-1.64;79.96;101260.78;1575440;89;21375;-78
2021/03/05 04:14:56;;;;;;;;;;;;;;;-1.63;80.00;101272.25;1561870;89;20291;-78
2021/03/05 04:17:40;;;;;;;;;;;;;;;-1.67;79.94;101267.84;1572324;89;20206;-78
2021/03/05 04:20:26;;;;;;;;;;;;;;;-1.67;79.98;101273.78;1578713;89;20268;-78
2021/03/05 04:23:11;;;;;;;;;;;;;;;-1.68;79.99;101274.98;1564909;89;20285;-78
2021/03/05 04:25:56;;;;;;;;;;;;;;;-1.70;79.93;101282.52;1577325;89;20485;-79
2021/03/05 04:28:40;;;;;;;;;;;;;;;-1.76;79.85;101288.59;1571152;89;20274;-79
2021/03/05 04:31:24;;;;;;;;;;;;;;;-1.83;79.90;101289.11;1568408;89;20190;-79
2021/03/05 04:34:09;;;;;;;;;;;;;;;-1.81;80.00;101291.32;1563174;89;20480;-80
2021/03/05 04:36:54;;;;;;;;;;;;;;;-1.85;79.92;101296.18;1571889;87;20594;-79
2021/03/05 04:39:38;;;;;;;;;;;;;;;-1.88;79.95;101294.78;1572030;89;20272;-79
2021/03/05 04:42:22;;;;;;;;;;;;;;;-1.92;79.90;101287.44;1571297;89;20208;-79
2021/03/05 04:45:07;;;;;;;;;;;;;;;-1.97;79.88;101298.16;1564500;89;20303;-79
2021/03/05 04:47:52;;;;;;;;;;;;;;;-2.01;79.93;101306.02;1567005;89;20575;-79
2021/03/05 04:50:37;;;;;;;;;;;;;;;-2.04;79.98;101309.69;1563411;89;20302;-79
2021/03/05 04:53:22;;;;;;;;;;;;;;;-2.05;79.99;101307.95;1565859;89;20621;-79
2021/03/05 04:56:06;;;;;;;;;;;;;;;-2.09;80.03;101303.17;1562541;89;20613;-79
2021/03/05 04:58:51;;;;;;;;;;;;;;;-2.09;79.99;101309.50;1555300;89;20339;-80
2021/03/05 05:01:35;;;;;;;;;;;;;;;-2.08;80.10;101312.91;1565146;87;20298;-80
2021/03/05 05:04:20;;;;;;;;;;;;;;;-2.08;80.00;101315.44;1562129;89;20552;-78
2021/03/05 05:07:05;;;;;;;;;;;;;;;-2.10;79.99;101327.17;1578178;87;20321;-78
2021/03/05 05:09:51;;;;;;;;;;;;;;;-2.12;80.06;101327.50;1580142;89;20327;-79
2021/03/05 05:12:36;;;;;;;;;;;;;;;-2.13;80.01;101329.16;1578924;89;20313;-79
2021/03/05 05:15:21;;;;;;;;;;;;;;;-2.12;80.19;101333.83;1581298;89;20649;-79
2021/03/05 05:18:06;;;;;;;;;;;;;;;-2.12;80.10;101325.83;1585725;89;20292;-79
2021/03/05 05:20:51;;;;;;;;;;;;;;;-2.11;80.09;101327.97;1585161;87;20316;-79
2021/03/05 05:23:35;;;;;;;;;;;;;;;-2.14;80.05;101324.89;1575164;89;20303;-79
2021/03/05 05:26:20;;;;;;;;;;;;;;;-2.16;80.04;101332.82;1576055;89;20305;-79
2021/03/05 05:29:05;;;;;;;;;;;;;;;-2.17;80.09;101332.34;1578020;89;20299;-79
2021/03/05 05:31:49;;;;;;;;;;;;;;;-2.18;80.06;101333.55;1572682;89;20336;-79
2021/03/05 05:34:34;;;;;;;;;;;;;;;-2.23;80.07;101335.86;1580808;89;20606;-79
2021/03/05 05:37:19;;;;;;;;;;;;;;;-2.24;80.08;101341.72;1577482;89;20319;-79
2021/03/05 05:40:05;;;;;;;;;;;;;;;-2.27;80.07;101347.91;1569093;89;20307;-80
2021/03/05 05:42:49;;;;;;;;;;;;;;;-2.26;80.14;101349.65;1571076;88;20306;-80
2021/03/05 05:45:34;;;;;;;;;;;;;;;-2.27;80.16;101352.97;1572611;89;20314;-79
2021/03/05 05:48:19;;;;;;;;;;;;;;;-2.27;80.07;101354.64;1570252;89;20318;-79
2021/03/05 05:51:08;;;;;;;;;;;;;;;-2.29;80.12;101357.09;1574164;89;20324;-79
2021/03/05 05:53:55;;;;;;;;;;;;;;;-2.25;80.29;101356.84;1566026;89;20409;-80
2021/03/05 05:56:41;;;;;;;;;;;;;;;-2.11;80.44;101363.44;1571980;89;20302;-80
2021/03/05 05:59:25;;;;;;;;;;;;;;;-1.94;80.51;101367.99;1574052;89;20287;-81
2021/03/05 06:02:10;;;;;;;;;;;;;;;-1.68;80.70;101370.06;1567771;89;20297;-82
2021/03/05 06:04:55;;;;;;;;;;;;;;;-1.30;80.88;101374.68;1580941;89;20355;-82
2021/03/05 06:07:45;;;;;;;;;;;;;;;-0.88;80.94;101368.89;1568034;89;20299;-82
2021/03/05 06:10:29;;;;;;;;;;;;;;;-0.41;80.97;101378.44;1559876;89;20319;-80
2021/03/05 06:13:15;;;;;;;;;;;;;;;0.05;80.89;101379.37;1574014;89;20272;-82
2021/03/05 06:16:16;;;;;;;;;;;;;;;0.40;80.40;101381.98;1560491;89;20296;-81
2021/03/05 06:19:18;;;;;;;;;;;;;;;0.65;80.22;101389.28;1551370;89;20421;-81
2021/03/05 06:22:04;;;;;;;;;;;;;;;0.89;80.24;101389.70;1551144;89;20296;-82
2021/03/05 06:24:49;;;;;;;;;;;;;;;1.11;79.93;101396.39;1559859;89;20315;-82
2021/03/05 06:27:34;;;;;;;;;;;;;;;1.25;79.80;101399.87;1563411;87;20269;-82
2021/03/05 06:30:30;;;;;;;;;;;;;;;1.36;79.65;101396.42;1586528;89;20292;-82
2021/03/05 06:33:29;;;;;;;;;;;;;;;1.51;79.80;101402.03;1573051;89;20288;-78
2021/03/05 06:36:27;;;;;;;;;;;;;;;1.73;79.68;101402.30;1585709;87;20311;-79
2021/03/05 06:39:12;;;;;;;;;;;;;;;1.85;79.56;101403.09;1583707;89;20308;-79
2021/03/05 06:41:59;;;;;;;;;;;;;;;1.95;79.48;101409.81;1573918;87;20306;-79
2021/03/05 06:44:45;;;;;;;;;;;;;;;2.01;79.34;101413.37;1576419;88;20338;-80
2021/03/05 06:47:30;;;;;;;;;;;;;;;1.99;79.04;101417.16;1569560;89;20324;-80
2021/03/05 06:50:21;;;;;;;;;;;;;;;1.83;79.03;101421.31;1579617;89;20317;-79
2021/03/05 06:53:23;;;;;;;;;;;;;;;1.70;79.01;101423.86;1576641;88;20308;-80
2021/03/05 06:56:08;;;;;;;;;;;;;;;1.56;78.92;101431.05;1575957;87;20332;-79
2021/03/05 06:59:01;;;;;;;;;;;;;;;1.41;79.12;101446.26;1560793;89;20324;-79
2021/03/05 07:01:51;;;;;;;;;;;;;;;1.41;79.41;101445.85;1568239;89;20309;-80
2021/03/05 07:04:48;;;;;;;;;;;;;;;1.39;79.13;101442.79;1588788;87;20297;-79
2021/03/05 07:07:41;;;;;;;;;;;;;;;1.45;79.55;101450.24;1579449;89;20298;-80
2021/03/05 07:10:31;;;;;;;;;;;;;;;1.59;79.50;101446.86;1571180;89;20304;-79
2021/03/05 07:13:16;;;;;;;;;;;;;;;1.75;79.73;101446.55;1563540;89;20314;-78
2021/03/05 07:16:01;;;;;;;;;;;;;;;1.99;79.65;101451.18;1574498;89;20288;-81
2021/03/05 07:18:45;;;;;;;;;;;;;;;2.19;79.57;101454.74;1579113;89;20468;-79
2021/03/05 07:21:31;;;;;;;;;;;;;;;2.35;79.41;101454.41;1580614;89;20580;-80
2021/03/05 07:24:17;;;;;;;;;;;;;;;2.49;79.42;101456.97;1571010;89;20463;-79
2021/03/05 07:27:04;;;;;;;;;;;;;;;2.80;79.62;101463.82;1596401;87;20336;-80
2021/03/05 07:29:50;;;;;;;;;;;;;;;3.08;79.54;101466.76;1574393;89;20312;-81
2021/03/05 07:32:37;;;;;;;;;;;;;;;3.20;79.11;101463.64;1577092;89;20635;-81
2021/03/05 07:35:35;;;;;;;;;;;;;;;3.37;79.26;101464.11;1583838;89;20334;-81
2021/03/05 07:38:23;;;;;;;;;;;;;;;3.55;79.07;101476.97;1568331;87;20326;-79
2021/03/05 07:41:08;;;;;;;;;;;;;;;3.68;79.06;101480.68;1577466;89;20564;-80
2021/03/05 07:43:53;;;;;;;;;;;;;;;3.63;78.66;101477.17;1572861;89;20708;-80
2021/03/05 07:46:41;;;;;;;;;;;;;;;3.80;78.92;101485.25;1575888;89;20310;-80
2021/03/05 07:49:30;;;;;;;;;;;;;;;3.82;78.82;101479.75;1581343;89;20296;-80
2021/03/05 07:52:15;;;;;;;;;;;;;;;3.92;78.60;101481.72;1577901;89;20358;-81
2021/03/05 07:55:02;;;;;;;;;;;;;;;3.97;78.80;101482.70;1577739;89;20339;-80
2021/03/05 07:57:47;;;;;;;;;;;;;;;4.12;78.50;101491.17;1577903;89;20302;-80
2021/03/05 08:00:47;;;;;;;;;;;;;;;3.98;78.20;101491.69;1582644;89;20311;-80
2021/03/05 08:03:53;;;;;;;;;;;;;;;4.22;78.56;101496.52;1579632;89;20318;-80
2021/03/05 08:06:39;;;;;;;;;;;;;;;4.30;78.64;101491.58;1572252;89;20312;-80
2021/03/05 08:09:27;;;;;;;;;;;;;;;4.32;78.64;101493.34;1572535;89;20342;-80
2021/03/05 08:12:45;;;;;;;;;;;;;;;4.25;78.43;101497.00;1565232;87;20298;-79
2021/03/05 08:15:29;;;;;;;;;;;;;;;4.32;78.77;101505.28;1558781;89;21050;-80
2021/03/05 08:18:20;;;;;;;;;;;;;;;4.33;78.82;101507.02;1569449;89;20326;-81
2021/03/05 08:21:08;;;;;;;;;;;;;;;4.24;78.62;101508.94;1574475;89;20312;-80
2021/03/05 08:24:23;;;;;;;;;;;;;;;4.09;78.13;101519.25;1575164;89;20951;-79
2021/03/05 08:27:10;;;;;;;;;;;;;;;3.96;78.49;101521.49;1576499;89;20687;-80
2021/03/05 08:30:11;;;;;;;;;;;;;;;3.95;78.64;101522.73;1576005;89;20336;-80
2021/03/05 08:33:00;;;;;;;;;;;;;;;3.90;78.54;101528.14;1570242;87;20340;-80
2021/03/05 08:35:45;;;;;;;;;;;;;;;3.74;78.63;101519.20;1577110;86;20328;-80
2021/03/05 08:38:36;;;;;;;;;;;;;;;3.71;78.53;101523.38;1575858;87;21350;-81
2021/03/05 08:41:25;;;;;;;;;;;;;;;3.66;78.63;101520.28;1575791;89;20501;-81
2021/03/05 08:44:07;;;;;;;;;;;;;;;3.65;78.59;101526.22;1577793;87;20292;-80
2021/03/05 08:46:55;;;;;;;;;;;;;;;3.68;78.72;101534.80;1571542;89;20343;-79
2021/03/05 08:49:40;;;;;;;;;;;;;;;3.77;78.76;101526.96;1576118;89;20328;-80
2021/03/05 08:52:26;;;;;;;;;;;;;;;3.95;78.30;101524.02;1574456;89;21241;-80
2021/03/05 08:55:12;;;;;;;;;;;;;;;4.24;78.30;101528.14;1574501;89;20429;-80
2021/03/05 08:57:57;;;;;;;;;;;;;;;4.16;78.21;101532.65;1528038;92;20335;-80
2021/03/05 09:00:41;;;;;;;;;;;;;;;3.89;78.22;101540.07;1524922;92;20440;-80
2021/03/05 09:03:26;;;;;;;;;;;;;;;3.63;78.44;101530.88;1523743;92;20332;-80
2021/03/05 09:06:12;;;;;;;;;;;;;;;3.50;78.53;101540.31;1532226;91;20342;-80
2021/03/05 09:09:08;;;;;;;;;;;;;;;3.44;78.71;101538.45;1537905;91;20655;-80
2021/03/05 09:12:12;;;;;;;;;;;;;;;3.40;78.75;101536.63;1532743;92;20323;-81
2021/03/05 09:15:06;;;;;;;;;;;;;;;3.41;78.78;101538.78;1538616;91;20319;-80
2021/03/05 09:17:47;;;;;;;;;;;;;;;3.33;78.47;101543.27;1525626;91;20604;-80
2021/03/05 09:20:40;;;;;;;;;;;;;;;3.26;78.37;101538.80;1557382;90;20306;-81
2021/03/05 09:23:41;;;;;;;;;;;;;;;3.23;78.39;101536.56;1562740;90;20201;-80
2021/03/05 09:26:25;;;;;;;;;;;;;;;3.25;78.31;101538.34;1555595;89;20297;-80
2021/03/05 09:29:13;;;;;;;;;;;;;;;3.16;78.17;101541.05;1548939;90;20183;-79
2021/03/05 09:32:00;;;;;;;;;;;;;;;3.10;77.63;101540.90;1549743;88;20299;-80
2021/03/05 09:34:50;;;;;;;;;;;;;;;3.11;78.07;101551.16;1560146;90;20289;-81
2021/03/05 09:37:35;;;;;;;;;;;;;;;3.17;77.79;101548.75;1564112;90;20293;-81
2021/03/05 09:40:20;;;;;;;;;;;;;;;3.13;77.73;101548.21;1560887;90;20271;-81
2021/03/05 09:43:05;;;;;;;;;;;;;;;3.17;77.68;101551.72;1564892;89;20322;-81
2021/03/05 09:45:52;;;;;;;;;;;;;;;3.22;77.90;101543.78;1559395;90;20284;-81
2021/03/05 09:48:37;;;;;;;;;;;;;;;3.28;77.38;101551.21;1561469;90;20476;-81
2021/03/05 09:51:22;;;;;;;;;;;;;;;3.30;77.76;101547.01;1557918;90;20273;-81
2021/03/05 09:54:07;;;;;;;;;;;;;;;3.41;77.52;101550.28;1550825;90;20318;-80
2021/03/05 09:56:52;;;;;;;;;;;;;;;3.43;77.22;101552.06;1565844;90;20612;-80
2021/03/05 09:59:42;;;;;;;;;;;;;;;3.54;77.37;101556.19;1555682;90;20300;-81
2021/03/05 10:02:27;;;;;;;;;;;;;;;3.52;76.87;101556.16;1555133;90;20307;-80
2021/03/05 10:05:12;;;;;;;;;;;;;;;3.50;76.77;101564.19;1558701;90;20312;-81
2021/03/05 10:07:57;;;;;;;;;;;;;;;3.53;76.72;101568.53;1541837;91;20308;-81
2021/03/05 10:11:09;;;;;;;;;;;;;;;3.55;76.52;101576.70;1538819;91;20340;-80
2021/03/05 10:13:55;;;;;;;;;;;;;;;3.59;76.88;101582.34;1544462;90;20306;-81
2021/03/05 10:16:42;;;;;;;;;;;;;;;3.73;76.80;101579.27;1543926;90;20293;-81
2021/03/05 10:19:26;;;;;;;;;;;;;;;3.77;76.66;101579.40;1545317;90;20305;-80
2021/03/05 10:22:12;;;;;;;;;;;;;;;3.82;76.61;101582.95;1535899;92;20291;-80
2021/03/05 10:24:56;;;;;;;;;;;;;;;3.78;76.16;101584.97;1527091;90;20299;-80
2021/03/05 10:27:42;;;;;;;;;;;;;;;3.83;76.38;101582.53;1543879;90;20290;-80
2021/03/05 10:30:26;;;;;;;;;;;;;;;3.84;76.08;101585.14;1546860;90;20525;-80
2021/03/05 10:33:11;;;;;;;;;;;;;;;3.78;75.88;101595.20;1549203;90;20304;-80
2021/03/05 10:35:55;;;;;;;;;;;;;;;3.71;75.87;101600.11;1537546;90;20308;-80
2021/03/05 10:38:41;;;;;;;;;;;;;;;3.61;75.86;101599.87;1555882;90;20296;-81
2021/03/05 10:41:26;;;;;;;;;;;;;;;3.58;75.88;101603.63;1547337;89;20297;-79
2021/03/05 10:44:10;;;;;;;;;;;;;;;3.44;75.60;101606.61;1540277;90;20952;-79
2021/03/05 10:47:04;;;;;;;;;;;;;;;3.33;75.78;101617.39;1544855;90;20299;-79
2021/03/05 10:49:48;;;;;;;;;;;;;;;3.28;75.77;101615.52;1543658;90;20219;-78
2021/03/05 10:52:33;;;;;;;;;;;;;;;3.22;75.64;101610.23;1550321;90;20333;-80
2021/03/05 10:55:18;;;;;;;;;;;;;;;3.24;75.59;101620.95;1545495;90;20302;-77
2021/03/05 10:58:05;;;;;;;;;;;;;;;3.22;75.55;101614.93;1547553;90;21230;-79
2021/03/05 11:00:49;;;;;;;;;;;;;;;3.30;75.52;101612.19;1542614;90;20425;-78
2021/03/05 11:03:34;;;;;;;;;;;;;;;3.41;75.64;101605.25;1543913;90;20575;-80
2021/03/05 11:06:19;;;;;;;;;;;;;;;3.53;75.74;101606.47;1541224;90;21198;-77
2021/03/05 11:09:06;;;;;;;;;;;;;;;3.71;75.75;101611.20;1526461;92;20305;-75
2021/03/05 11:11:50;;;;;;;;;;;;;;;3.92;75.65;101603.25;1530777;89;20338;-77
2021/03/05 11:14:35;;;;;;;;;;;;;;;4.08;75.26;101613.48;1527078;92;20320;-77
2021/03/05 11:17:21;;;;;;;;;;;;;;;4.21;74.93;101616.78;1527030;91;20338;-76
2021/03/05 11:20:07;;;;;;;;;;;;;;;4.14;73.97;101617.48;1530734;91;20326;-76
2021/03/05 11:22:53;;;;;;;;;;;;;;;3.98;74.03;101624.75;1518191;92;20311;-76
2021/03/05 11:25:38;;;;;;;;;;;;;;;3.83;74.09;101627.30;1532480;92;20477;-76
2021/03/05 11:28:22;;;;;;;;;;;;;;;3.78;74.40;101627.59;1531847;91;20514;-76
2021/03/05 11:31:07;;;;;;;;;;;;;;;3.73;74.38;101622.34;1529121;92;20288;-76
2021/03/05 11:33:51;;;;;;;;;;;;;;;3.74;74.68;101623.21;1521305;90;20283;-77
2021/03/05 11:36:36;;;;;;;;;;;;;;;3.74;74.75;101615.12;1529731;92;20510;-76
2021/03/05 11:39:20;;;;;;;;;;;;;;;3.83;74.87;101606.42;1525156;92;20276;-76
2021/03/05 11:42:05;;;;;;;;;;;;;;;4.01;74.98;101602.63;1536367;92;20270;-76
2021/03/05 11:44:49;;;;;;;;;;;;;;;4.18;74.70;101595.81;1520937;92;20471;-77
2021/03/05 11:47:34;;;;;;;;;;;;;;;4.23;74.47;101604.89;1537393;92;20300;-76
2021/03/05 11:50:19;;;;;;;;;;;;;;;4.24;74.00;101599.81;1531129;90;20502;-77
2021/03/05 11:53:03;;;;;;;;;;;;;;;4.27;74.10;101600.30;1524770;91;20285;-77
2021/03/05 11:55:48;;;;;;;;;;;;;;;4.39;74.09;101603.17;1528559;91;20487;-76
2021/03/05 11:58:32;;;;;;;;;;;;;;;4.42;73.91;101607.09;1515614;92;20294;-76
2021/03/05 12:01:17;;;;;;;;;;;;;;;4.47;73.91;101606.80;1525700;92;20288;-76
2021/03/05 12:04:01;;;;;;;;;;;;;;;4.51;73.80;101604.77;1524049;92;20328;-75
2021/03/05 12:06:46;;;;;;;;;;;;;;;4.49;73.61;101606.42;1530550;88;20645;-75
2021/03/05 12:09:30;;;;;;;;;;;;;;;4.46;73.51;101611.47;1528228;90;20305;-75
2021/03/05 12:12:15;;;;;;;;;;;;;;;4.40;73.57;101608.75;1527863;92;20600;-75
2021/03/05 12:15:00;;;;;;;;;;;;;;;4.33;73.42;101612.85;1524345;91;20324;-76
2021/03/05 12:17:45;;;;;;;;;;;;;;;4.28;73.50;101608.44;1528970;88;20366;-76
2021/03/05 12:20:29;;;;;;;;;;;;;;;4.34;73.74;101618.84;1517475;92;20333;-76
2021/03/05 12:23:14;;;;;;;;;;;;;;;4.39;73.65;101616.39;1521944;92;20331;-76
2021/03/05 12:25:58;;;;;;;;;;;;;;;4.42;73.61;101610.94;1548110;90;20353;-76
2021/03/05 12:28:43;;;;;;;;;;;;;;;4.47;73.55;101617.04;1547183;89;20641;-76
2021/03/05 12:31:28;;;;;;;;;;;;;;;4.59;73.02;101616.06;1561396;90;20328;-76
2021/03/05 12:34:12;;;;;;;;;;;;;;;4.62;73.06;101614.86;1542698;90;20337;-76
2021/03/05 12:36:57;;;;;;;;;;;;;;;4.68;73.04;101608.98;1551962;90;20320;-76
2021/03/05 12:39:42;;;;;;;;;;;;;;;4.65;72.79;101627.74;1550173;91;20325;-75
2021/03/05 12:42:26;;;;;;;;;;;;;;;4.54;72.66;101632.15;1546726;90;20349;-77
2021/03/05 12:45:12;;;;;;;;;;;;;;;4.43;72.82;101633.16;1544232;90;20343;-76
2021/03/05 12:47:56;;;;;;;;;;;;;;;4.30;72.94;101641.34;1549503;91;20410;-76
2021/03/05 12:50:41;;;;;;;;;;;;;;;4.18;73.02;101639.33;1551761;90;20652;-76
2021/03/05 12:53:25;;;;;;;;;;;;;;;4.16;73.16;101635.03;1539533;91;20377;-76
2021/03/05 12:56:10;;;;;;;;;;;;;;;4.13;72.99;101637.51;1544891;90;20328;-76
2021/03/05 12:58:55;;;;;;;;;;;;;;;4.14;73.22;101640.52;1540783;91;20343;-76
2021/03/05 13:01:39;;;;;;;;;;;;;;;4.15;73.12;101639.70;1544602;90;20657;-76
2021/03/05 13:04:24;;;;;;;;;;;;;;;4.12;72.98;101645.60;1543345;90;20299;-76
2021/03/05 13:07:08;;;;;;;;;;;;;;;4.09;72.92;101649.77;1554875;89;20403;-76
2021/03/05 13:09:53;;;;;;;;;;;;;;;4.08;72.81;101653.16;1552044;90;20311;-75
2021/03/05 13:12:38;;;;;;;;;;;;;;;4.07;72.83;101652.70;1552161;90;20340;-75
2021/03/05 13:15:22;;;;;;;;;;;;;;;4.10;72.93;101652.78;1549602;91;20342;-76
2021/03/05 13:18:08;;;;;;;;;;;;;;;4.18;72.93;101656.38;1555988;90;20331;-76
2021/03/05 13:20:53;;;;;;;;;;;;;;;4.25;72.86;101662.12;1547917;89;20463;-76
2021/03/05 13:23:39;;;;;;;;;;;;;;;4.29;72.37;101651.14;1556592;88;20312;-76
2021/03/05 13:26:23;;;;;;;;;;;;;;;4.24;72.18;101662.95;1552571;90;20276;-76
2021/03/05 13:29:08;;;;;;;;;;;;;;;4.09;72.00;101657.45;1545154;90;20299;-76
2021/03/05 13:31:53;;;;;;;;;;;;;;;3.99;72.03;101656.33;1561003;90;20297;-76
2021/03/05 13:34:37;;;;;;;;;;;;;;;3.89;71.85;101662.02;1546884;88;20305;-76
2021/03/05 13:37:21;;;;;;;;;;;;;;;3.82;71.97;101658.83;1556722;90;20285;-76
2021/03/05 13:40:07;;;;;;;;;;;;;;;3.79;71.99;101658.33;1549144;90;20318;-76
2021/03/05 13:42:51;;;;;;;;;;;;;;;3.79;71.97;101653.21;1558694;90;20281;-76
2021/03/05 13:45:35;;;;;;;;;;;;;;;3.81;72.01;101647.73;1553855;90;20287;-76
2021/03/05 13:48:20;;;;;;;;;;;;;;;3.85;71.93;101639.73;1549445;90;20488;-76
2021/03/05 13:51:04;;;;;;;;;;;;;;;3.93;71.94;101645.92;1558484;90;20288;-79
2021/03/05 13:53:49;;;;;;;;;;;;;;;4.04;71.93;101654.77;1549763;90;20646;-79
2021/03/05 13:56:34;;;;;;;;;;;;;;;4.15;71.68;101657.61;1555246;90;20610;-79
2021/03/05 13:59:18;;;;;;;;;;;;;;;4.21;71.65;101655.19;1558407;90;20311;-80
2021/03/05 14:02:03;;;;;;;;;;;;;;;4.35;71.76;101650.43;1556778;89;20294;-79
2021/03/05 14:04:48;;;;;;;;;;;;;;;4.51;71.63;101647.02;1559255;90;20332;-80
2021/03/05 14:07:32;;;;;;;;;;;;;;;4.70;71.60;101650.87;1559816;90;20333;-78
2021/03/05 14:10:17;;;;;;;;;;;;;;;4.86;71.21;101659.80;1547656;90;20337;-77
2021/03/05 14:13:01;;;;;;;;;;;;;;;4.84;70.65;101655.92;1545634;90;20323;-77
2021/03/05 14:15:46;;;;;;;;;;;;;;;4.82;70.74;101679.77;1548129;90;20343;-77
2021/03/05 14:18:31;;;;;;;;;;;;;;;4.71;70.50;101689.76;1544780;90;20296;-77
2021/03/05 14:21:15;;;;;;;;;;;;;;;4.41;70.52;101697.96;1541925;90;20336;-77
2021/03/05 14:24:00;;;;;;;;;;;;;;;4.16;70.24;101706.25;1528545;92;20638;-77
2021/03/05 14:26:45;;;;;;;;;;;;;;;3.94;70.71;101707.38;1543584;91;20355;-77